Time;durP1;ratioP1;P1;durP2;ratioP2;P2;SDS_P1;SDS_P2;PMS_P1;PMS_P2;Temp;Humidity;BMP_temperature;BMP_pressure;BME280_temperature;BME280_humidity;BME280_pressure;Samples;Min_cycle;Max_cycle;Signal;HPM_P1;HPM_P2
2023/12/20 00:01:06;;;;;;;;;;;4.00;99.90;;;;;;5013389;28;19929;-59
2023/12/20 00:03:33;;;;;;;;;;;4.00;99.90;;;;;;5013001;28;19933;-60
2023/12/20 00:06:08;;;;;;;;;;;3.90;99.90;;;;;;5010670;28;19940;-61
2023/12/20 00:08:35;;;;;;;;;;;3.90;99.90;;;;;;5010232;28;19937;-59
2023/12/20 00:11:02;;;;;;;;;;;3.90;99.90;;;;;;5005401;28;20017;-65
2023/12/20 00:13:29;;;;;;;;;;;3.90;99.90;;;;;;5005626;28;20028;-61
2023/12/20 00:15:56;;;;;;;;;;;3.90;99.90;;;;;;5006266;28;19940;-58
2023/12/20 00:18:23;;;;;;;;;;;3.90;99.90;;;;;;5006790;28;19936;-63
2023/12/20 00:20:50;;;;;;;;;;;3.90;99.90;;;;;;5013423;28;19937;-62
2023/12/20 00:23:17;;;;;;;;;;;3.90;99.90;;;;;;5007583;28;19953;-58
2023/12/20 00:25:44;;;;;;;;;;;3.90;99.90;;;;;;5010758;28;20045;-58
2023/12/20 00:28:11;;;;;;;;;;;3.90;99.90;;;;;;5015250;28;19933;-63
2023/12/20 00:30:37;;;;;;;;;;;3.90;99.90;;;;;;5019794;28;20035;-59
2023/12/20 00:33:04;;;;;;;;;;;3.90;99.90;;;;;;5014489;28;19937;-59
2023/12/20 00:35:31;;;;;;;;;;;3.80;99.90;;;;;;5012517;28;19929;-62
2023/12/20 00:37:58;;;;;;;;;;;3.90;99.90;;;;;;5005722;28;19929;-61
2023/12/20 00:40:25;;;;;;;;;;;3.80;99.90;;;;;;5002721;28;19948;-58
2023/12/20 00:42:52;;;;;;;;;;;3.80;99.90;;;;;;5011450;28;19941;-61
2023/12/20 00:45:19;;;;;;;;;;;3.80;99.90;;;;;;5015365;28;19929;-59
2023/12/20 00:47:46;;;;;;;;;;;3.80;99.90;;;;;;5007280;28;19929;-58
2023/12/20 00:50:13;;;;;;;;;;;3.90;99.90;;;;;;5015226;28;20310;-59
2023/12/20 00:52:40;;;;;;;;;;;3.80;99.90;;;;;;5013647;28;19960;-61
2023/12/20 00:55:07;;;;;;;;;;;3.80;99.90;;;;;;5014860;28;19929;-61
2023/12/20 00:57:34;;;;;;;;;;;3.80;99.90;;;;;;5011327;28;20076;-60
2023/12/20 01:00:01;;;;;;;;;;;3.80;99.90;;;;;;5007176;28;19925;-59
2023/12/20 01:02:29;;;;;;;;;;;3.80;99.90;;;;;;5009572;28;19968;-62
2023/12/20 01:04:55;;;;;;;;;;;3.80;99.90;;;;;;5010070;28;19968;-61
2023/12/20 01:07:22;;;;;;;;;;;3.90;99.90;;;;;;5006220;28;19956;-61
2023/12/20 01:09:49;;;;;;;;;;;3.90;99.90;;;;;;5007120;28;19972;-62
2023/12/20 01:12:16;;;;;;;;;;;3.90;99.90;;;;;;5007312;28;19937;-60
2023/12/20 01:14:43;;;;;;;;;;;3.90;99.90;;;;;;5016619;28;19929;-60
2023/12/20 01:17:10;;;;;;;;;;;3.90;99.90;;;;;;5011099;28;19929;-64
2023/12/20 01:19:36;;;;;;;;;;;3.90;99.90;;;;;;5013102;28;19979;-64
2023/12/20 01:22:04;;;;;;;;;;;3.90;99.90;;;;;;5001875;28;19930;-59
2023/12/20 01:24:31;;;;;;;;;;;3.90;99.90;;;;;;5008446;28;19933;-62
2023/12/20 01:26:57;;;;;;;;;;;3.90;99.90;;;;;;5005862;28;20590;-59
2023/12/20 01:29:24;;;;;;;;;;;3.90;99.90;;;;;;5005260;28;19930;-59
2023/12/20 01:31:51;;;;;;;;;;;3.90;99.90;;;;;;5009416;28;20302;-60
2023/12/20 01:34:18;;;;;;;;;;;3.90;99.90;;;;;;5012577;28;19933;-67
2023/12/20 01:36:45;;;;;;;;;;;3.90;99.90;;;;;;5012843;28;19926;-57
2023/12/20 01:39:12;;;;;;;;;;;3.90;99.90;;;;;;5015946;28;19929;-59
2023/12/20 01:41:53;;;;;;;;;;;3.90;99.90;;;;;;5012223;28;19929;-59
2023/12/20 01:44:20;;;;;;;;;;;4.00;99.90;;;;;;5015613;28;20288;-63
2023/12/20 01:46:47;;;;;;;;;;;4.00;99.90;;;;;;5005371;28;19933;-59
2023/12/20 01:49:14;;;;;;;;;;;4.00;99.90;;;;;;5009737;28;19987;-64
2023/12/20 01:51:42;;;;;;;;;;;4.00;99.90;;;;;;5007296;28;19969;-60
2023/12/20 01:54:09;;;;;;;;;;;4.00;99.90;;;;;;5002588;28;19929;-62
2023/12/20 01:56:35;;;;;;;;;;;4.00;99.90;;;;;;5002315;28;19944;-61
2023/12/20 01:59:04;;;;;;;;;;;4.00;99.90;;;;;;5012203;28;20028;-60
2023/12/20 02:01:31;;;;;;;;;;;4.00;99.90;;;;;;5011401;28;20287;-60
2023/12/20 02:03:59;;;;;;;;;;;4.00;99.90;;;;;;5020361;28;19947;-61
2023/12/20 02:06:29;;;;;;;;;;;4.00;99.90;;;;;;5001781;28;19987;-61
2023/12/20 02:08:56;;;;;;;;;;;4.00;99.90;;;;;;5015631;28;20140;-58
2023/12/20 02:11:24;;;;;;;;;;;4.00;99.90;;;;;;5004483;28;19949;-61
2023/12/20 02:13:51;;;;;;;;;;;4.00;99.90;;;;;;5008974;28;20422;-62
2023/12/20 02:16:18;;;;;;;;;;;4.00;99.90;;;;;;5010353;28;19943;-59
2023/12/20 02:18:45;;;;;;;;;;;4.00;99.90;;;;;;5013886;28;19925;-58
2023/12/20 02:21:12;;;;;;;;;;;4.00;99.90;;;;;;5010012;28;19929;-62
2023/12/20 02:23:39;;;;;;;;;;;4.00;99.90;;;;;;5015114;28;19932;-58
2023/12/20 02:26:07;;;;;;;;;;;4.00;99.90;;;;;;5014452;28;19933;-59
2023/12/20 02:28:34;;;;;;;;;;;4.00;99.90;;;;;;5009736;28;20303;-60
2023/12/20 02:31:01;;;;;;;;;;;4.00;99.90;;;;;;5009789;28;20481;-61
2023/12/20 02:33:28;;;;;;;;;;;3.90;99.90;;;;;;5000968;28;19936;-59
2023/12/20 02:35:54;;;;;;;;;;;3.90;99.90;;;;;;5006199;28;19930;-60
2023/12/20 02:38:21;;;;;;;;;;;3.90;99.90;;;;;;5004358;28;19968;-60
2023/12/20 02:40:48;;;;;;;;;;;4.00;99.90;;;;;;5008130;28;19929;-63
2023/12/20 02:43:16;;;;;;;;;;;4.00;99.90;;;;;;5010704;28;19933;-59
2023/12/20 02:45:43;;;;;;;;;;;4.00;99.90;;;;;;5012541;28;20286;-59
2023/12/20 02:48:10;;;;;;;;;;;4.00;99.90;;;;;;5021320;28;20011;-61
2023/12/20 02:50:37;;;;;;;;;;;3.90;99.90;;;;;;5018314;28;20576;-65
2023/12/20 02:53:03;;;;;;;;;;;3.90;99.90;;;;;;5017385;28;19975;-62
2023/12/20 02:55:30;;;;;;;;;;;3.90;99.90;;;;;;5015779;28;19965;-62
2023/12/20 02:57:57;;;;;;;;;;;3.90;99.90;;;;;;5010767;28;19930;-64
2023/12/20 03:00:24;;;;;;;;;;;3.90;99.90;;;;;;5011450;28;19968;-67
2023/12/20 03:02:51;;;;;;;;;;;3.90;99.90;;;;;;5008907;28;19933;-64
2023/12/20 03:05:18;;;;;;;;;;;3.90;99.90;;;;;;5007641;28;19929;-60
2023/12/20 03:07:45;;;;;;;;;;;3.90;99.90;;;;;;5017149;28;19925;-60
2023/12/20 03:10:12;;;;;;;;;;;3.90;99.90;;;;;;5015237;28;19960;-62
2023/12/20 03:12:49;;;;;;;;;;;3.90;99.90;;;;;;5016548;28;19930;-63
2023/12/20 03:15:16;;;;;;;;;;;3.90;99.90;;;;;;5018459;28;19936;-59
2023/12/20 03:17:43;;;;;;;;;;;3.90;99.90;;;;;;5023124;28;19929;-59
2023/12/20 03:20:11;;;;;;;;;;;3.90;99.90;;;;;;5008383;28;19951;-65
2023/12/20 03:22:38;;;;;;;;;;;3.90;99.90;;;;;;4998128;28;19939;-64
2023/12/20 03:25:05;;;;;;;;;;;3.90;99.90;;;;;;5004348;28;19944;-61
2023/12/20 03:27:32;;;;;;;;;;;3.90;99.90;;;;;;5006161;28;19933;-62
2023/12/20 03:29:58;;;;;;;;;;;3.90;99.90;;;;;;5015261;28;19931;-61
2023/12/20 03:32:25;;;;;;;;;;;3.90;99.90;;;;;;5011242;28;19928;-58
2023/12/20 03:34:52;;;;;;;;;;;3.90;99.90;;;;;;5009621;28;19940;-61
2023/12/20 03:37:19;;;;;;;;;;;3.90;99.90;;;;;;5011695;28;19936;-59
2023/12/20 03:39:46;;;;;;;;;;;3.90;99.90;;;;;;5017000;28;20437;-59
2023/12/20 03:42:13;;;;;;;;;;;3.90;99.90;;;;;;5009782;28;19933;-60
2023/12/20 03:44:40;;;;;;;;;;;3.90;99.90;;;;;;5008691;28;19929;-59
2023/12/20 03:47:07;;;;;;;;;;;3.90;99.90;;;;;;5010499;28;19968;-60
2023/12/20 03:49:36;;;;;;;;;;;3.90;99.90;;;;;;5012247;28;19992;-62
2023/12/20 03:52:04;;;;;;;;;;;3.90;99.90;;;;;;5010549;28;20438;-59
2023/12/20 03:54:31;;;;;;;;;;;3.90;99.90;;;;;;5017218;28;19961;-62
2023/12/20 03:56:58;;;;;;;;;;;3.90;99.90;;;;;;5012279;28;19984;-61
2023/12/20 03:59:24;;;;;;;;;;;3.90;99.90;;;;;;5019518;28;19987;-59
2023/12/20 04:01:51;;;;;;;;;;;4.00;99.90;;;;;;5017164;28;19937;-63
2023/12/20 04:04:18;;;;;;;;;;;4.00;99.90;;;;;;5015298;28;19925;-62
2023/12/20 04:06:45;;;;;;;;;;;4.00;99.90;;;;;;5005445;28;19941;-58
2023/12/20 04:09:13;;;;;;;;;;;4.00;99.90;;;;;;5004455;28;19929;-61
2023/12/20 04:11:39;;;;;;;;;;;3.90;99.90;;;;;;5008970;28;20429;-58
2023/12/20 04:14:07;;;;;;;;;;;3.90;99.90;;;;;;5007764;28;20430;-60
2023/12/20 04:16:34;;;;;;;;;;;3.90;99.90;;;;;;5009955;28;19925;-62
2023/12/20 04:19:02;;;;;;;;;;;3.90;99.90;;;;;;5016535;28;20591;-58
2023/12/20 04:21:29;;;;;;;;;;;3.90;99.90;;;;;;5016528;28;19964;-60
2023/12/20 04:23:56;;;;;;;;;;;3.90;99.90;;;;;;5012973;28;19961;-61
2023/12/20 04:26:23;;;;;;;;;;;4.00;99.90;;;;;;5010752;28;19929;-60
2023/12/20 04:28:50;;;;;;;;;;;4.00;99.90;;;;;;5018860;28;19935;-58
2023/12/20 04:31:20;;;;;;;;;;;4.00;99.90;;;;;;5006002;28;19969;-59
2023/12/20 04:33:47;;;;;;;;;;;4.00;99.90;;;;;;5008046;28;19929;-65
2023/12/20 04:36:14;;;;;;;;;;;4.10;99.90;;;;;;5008059;28;19960;-61
2023/12/20 04:38:41;;;;;;;;;;;4.20;99.90;;;;;;5005988;28;19971;-62
2023/12/20 04:41:08;;;;;;;;;;;4.20;99.90;;;;;;5012921;28;20571;-60
2023/12/20 04:43:34;;;;;;;;;;;4.20;99.90;;;;;;5012363;28;19965;-61
2023/12/20 04:46:01;;;;;;;;;;;4.20;99.90;;;;;;5016009;28;20390;-62
2023/12/20 04:48:28;;;;;;;;;;;4.20;99.90;;;;;;5003428;28;19953;-62
2023/12/20 04:50:55;;;;;;;;;;;4.20;99.90;;;;;;5003239;28;20684;-61
2023/12/20 04:53:23;;;;;;;;;;;4.30;99.90;;;;;;5010346;28;19964;-62
2023/12/20 04:55:49;;;;;;;;;;;4.30;99.90;;;;;;5007019;28;20536;-60
2023/12/20 04:58:16;;;;;;;;;;;4.30;99.90;;;;;;5006222;28;19938;-60
2023/12/20 05:00:43;;;;;;;;;;;4.30;99.90;;;;;;5001461;28;20589;-61
2023/12/20 05:03:10;;;;;;;;;;;4.30;99.90;;;;;;5010506;28;20512;-59
2023/12/20 05:05:37;;;;;;;;;;;4.40;99.90;;;;;;5002221;28;19929;-67
2023/12/20 05:08:04;;;;;;;;;;;4.30;99.90;;;;;;5010396;28;19936;-60
2023/12/20 05:10:31;;;;;;;;;;;4.30;99.90;;;;;;5012083;28;19926;-60
2023/12/20 05:12:58;;;;;;;;;;;4.30;99.90;;;;;;5017131;28;19978;-61
2023/12/20 05:15:25;;;;;;;;;;;4.20;99.90;;;;;;5021516;28;19925;-59
2023/12/20 05:17:51;;;;;;;;;;;4.20;99.90;;;;;;5006846;28;19940;-61
2023/12/20 05:20:18;;;;;;;;;;;4.20;99.90;;;;;;5006281;28;19979;-64
2023/12/20 05:22:45;;;;;;;;;;;4.20;99.90;;;;;;5006719;28;19929;-60
2023/12/20 05:25:12;;;;;;;;;;;4.20;99.90;;;;;;5007740;28;19929;-60
2023/12/20 05:27:39;;;;;;;;;;;4.20;99.90;;;;;;5011641;28;19934;-61
2023/12/20 05:30:06;;;;;;;;;;;4.20;99.90;;;;;;5011164;28;19929;-60
2023/12/20 05:32:33;;;;;;;;;;;4.10;99.90;;;;;;5011276;28;20048;-64
2023/12/20 05:35:00;;;;;;;;;;;4.10;99.90;;;;;;5006472;28;19936;-61
2023/12/20 05:37:27;;;;;;;;;;;4.10;99.90;;;;;;5016633;28;20279;-61
2023/12/20 05:39:54;;;;;;;;;;;4.10;99.90;;;;;;5014649;28;19941;-61
2023/12/20 05:42:21;;;;;;;;;;;4.10;99.90;;;;;;4996028;28;19941;-61
2023/12/20 05:44:47;;;;;;;;;;;4.10;99.90;;;;;;5008650;28;20040;-62
2023/12/20 05:47:16;;;;;;;;;;;4.10;99.90;;;;;;5006485;28;19937;-61
2023/12/20 05:49:44;;;;;;;;;;;4.00;99.90;;;;;;5007018;28;19936;-59
2023/12/20 05:52:10;;;;;;;;;;;4.10;99.90;;;;;;5008466;28;19932;-60
2023/12/20 05:54:37;;;;;;;;;;;4.00;99.90;;;;;;5009671;28;19973;-61
2023/12/20 05:57:04;;;;;;;;;;;4.00;99.90;;;;;;5008542;28;20365;-60
2023/12/20 05:59:31;;;;;;;;;;;4.00;99.90;;;;;;5013616;28;20363;-59
2023/12/20 06:01:58;;;;;;;;;;;4.00;99.90;;;;;;5020566;28;19937;-65
2023/12/20 06:04:24;;;;;;;;;;;4.00;99.90;;;;;;5007634;28;20012;-62
2023/12/20 06:06:51;;;;;;;;;;;4.00;99.90;;;;;;5000522;28;20520;-60
2023/12/20 06:09:19;;;;;;;;;;;3.90;99.90;;;;;;5007251;28;20417;-60
2023/12/20 06:11:46;;;;;;;;;;;3.90;99.90;;;;;;5003049;28;19932;-61
2023/12/20 06:14:13;;;;;;;;;;;3.90;99.90;;;;;;5005513;28;19929;-63
2023/12/20 06:16:39;;;;;;;;;;;3.90;99.90;;;;;;5006331;28;20418;-62
2023/12/20 06:19:06;;;;;;;;;;;3.90;99.90;;;;;;5006136;28;20602;-62
2023/12/20 06:21:33;;;;;;;;;;;3.90;99.90;;;;;;5012064;28;19991;-59
2023/12/20 06:24:00;;;;;;;;;;;3.90;99.90;;;;;;5013691;28;20021;-63
2023/12/20 06:26:27;;;;;;;;;;;3.90;99.90;;;;;;5007398;28;19930;-61
2023/12/20 06:28:54;;;;;;;;;;;3.80;99.90;;;;;;5004587;28;19960;-60
2023/12/20 06:31:20;;;;;;;;;;;3.80;99.90;;;;;;5006716;28;19929;-61
2023/12/20 06:33:49;;;;;;;;;;;3.90;99.90;;;;;;5003142;28;20703;-66
2023/12/20 06:36:16;;;;;;;;;;;3.80;99.90;;;;;;5003618;28;20019;-61
2023/12/20 06:38:43;;;;;;;;;;;3.80;99.90;;;;;;5009406;28;19929;-63
2023/12/20 06:41:13;;;;;;;;;;;3.80;99.90;;;;;;5008419;28;19929;-60
2023/12/20 06:43:40;;;;;;;;;;;3.80;99.90;;;;;;5011781;28;19929;-65
2023/12/20 06:46:16;;;;;;;;;;;3.80;99.90;;;;;;5008157;28;19929;-59
2023/12/20 06:48:44;;;;;;;;;;;3.80;99.90;;;;;;5012700;28;19936;-59
2023/12/20 06:51:12;;;;;;;;;;;3.80;99.90;;;;;;5004739;28;19937;-62
2023/12/20 06:53:39;;;;;;;;;;;3.80;99.90;;;;;;5005535;28;19971;-65
2023/12/20 06:56:07;;;;;;;;;;;3.80;99.90;;;;;;5000340;28;19933;-59
2023/12/20 06:58:34;;;;;;;;;;;3.80;99.90;;;;;;5004184;28;19932;-61
2023/12/20 07:01:01;;;;;;;;;;;3.80;99.90;;;;;;5006376;28;19930;-64
2023/12/20 07:03:27;;;;;;;;;;;3.80;99.90;;;;;;5011011;28;20021;-59
2023/12/20 07:05:54;;;;;;;;;;;3.80;99.90;;;;;;5006711;28;19975;-62
2023/12/20 07:08:21;;;;;;;;;;;3.80;99.90;;;;;;5018359;28;20019;-63
2023/12/20 07:10:48;;;;;;;;;;;3.80;99.90;;;;;;5007849;28;19984;-58
2023/12/20 07:13:15;;;;;;;;;;;3.80;99.90;;;;;;5011341;28;19930;-58
2023/12/20 07:15:42;;;;;;;;;;;3.80;99.90;;;;;;5004392;28;19930;-64
2023/12/20 07:18:10;;;;;;;;;;;3.80;99.90;;;;;;5007201;28;19963;-59
2023/12/20 07:20:37;;;;;;;;;;;3.80;99.90;;;;;;5002854;28;19929;-59
2023/12/20 07:23:04;;;;;;;;;;;3.80;99.90;;;;;;5005984;28;19974;-60
2023/12/20 07:25:34;;;;;;;;;;;3.80;99.90;;;;;;5009628;28;19957;-59
2023/12/20 07:28:01;;;;;;;;;;;3.80;99.90;;;;;;5010846;28;20385;-59
2023/12/20 07:30:28;;;;;;;;;;;3.80;99.90;;;;;;5013726;28;19929;-64
2023/12/20 07:32:55;;;;;;;;;;;3.80;99.90;;;;;;5013360;28;19935;-64
2023/12/20 07:35:23;;;;;;;;;;;3.80;99.90;;;;;;5010870;28;19936;-63
2023/12/20 07:37:50;;;;;;;;;;;3.70;99.90;;;;;;5006764;28;19940;-67
2023/12/20 07:40:17;;;;;;;;;;;3.70;99.90;;;;;;5006326;28;19934;-62
2023/12/20 07:42:44;;;;;;;;;;;3.70;99.90;;;;;;5002877;28;19937;-60
2023/12/20 07:45:11;;;;;;;;;;;3.70;99.90;;;;;;5011901;28;20678;-62
2023/12/20 07:47:38;;;;;;;;;;;3.60;99.90;;;;;;5007691;28;19995;-61
2023/12/20 07:50:05;;;;;;;;;;;3.50;99.90;;;;;;5009630;28;20015;-58
2023/12/20 07:52:32;;;;;;;;;;;3.50;99.90;;;;;;5012550;28;19930;-61
2023/12/20 07:54:59;;;;;;;;;;;3.50;99.90;;;;;;5014019;28;19929;-58
2023/12/20 07:57:28;;;;;;;;;;;3.50;99.90;;;;;;5008698;28;19925;-62
2023/12/20 07:59:55;;;;;;;;;;;3.50;99.90;;;;;;5018848;28;19929;-59
2023/12/20 08:02:22;;;;;;;;;;;3.40;99.90;;;;;;5004257;28;19944;-58
2023/12/20 08:04:48;;;;;;;;;;;3.40;99.90;;;;;;5010139;28;19925;-60
2023/12/20 08:07:16;;;;;;;;;;;3.40;99.90;;;;;;5008207;28;19988;-62
2023/12/20 08:09:43;;;;;;;;;;;3.50;99.90;;;;;;5009863;28;19926;-65
2023/12/20 08:12:11;;;;;;;;;;;3.50;99.90;;;;;;5010319;28;19933;-61
2023/12/20 08:14:37;;;;;;;;;;;3.50;99.90;;;;;;5014637;28;21674;-66
2023/12/20 08:17:04;;;;;;;;;;;3.50;99.90;;;;;;5009869;28;20350;-60
2023/12/20 08:19:31;;;;;;;;;;;3.50;99.90;;;;;;5016352;28;19930;-60
2023/12/20 08:21:58;;;;;;;;;;;3.60;99.90;;;;;;5013402;28;19968;-64
2023/12/20 08:24:25;;;;;;;;;;;3.60;99.90;;;;;;5011002;28;19968;-59
2023/12/20 08:26:52;;;;;;;;;;;3.60;99.90;;;;;;5005434;28;19933;-63
2023/12/20 08:29:19;;;;;;;;;;;3.70;99.90;;;;;;5003128;28;19926;-59
2023/12/20 08:31:46;;;;;;;;;;;3.70;99.90;;;;;;5012775;28;19934;-59
2023/12/20 08:34:14;;;;;;;;;;;3.70;99.90;;;;;;5015800;28;19940;-69
2023/12/20 08:36:42;;;;;;;;;;;3.80;99.90;;;;;;5005509;28;20032;-65
2023/12/20 08:39:09;;;;;;;;;;;3.80;99.90;;;;;;5009903;28;20637;-62
2023/12/20 08:41:36;;;;;;;;;;;3.80;99.90;;;;;;5019188;28;19926;-67
2023/12/20 08:44:03;;;;;;;;;;;3.90;99.90;;;;;;5020730;28;20614;-67
2023/12/20 08:46:30;;;;;;;;;;;3.90;99.90;;;;;;5019240;28;19968;-59
2023/12/20 08:48:57;;;;;;;;;;;3.90;99.90;;;;;;5010880;28;20541;-61
2023/12/20 08:51:25;;;;;;;;;;;3.90;99.90;;;;;;5000856;28;20027;-60
2023/12/20 08:53:52;;;;;;;;;;;3.90;99.90;;;;;;5007414;28;19929;-62
2023/12/20 08:56:19;;;;;;;;;;;4.00;99.90;;;;;;5011660;28;19953;-59
2023/12/20 08:58:46;;;;;;;;;;;4.00;99.90;;;;;;5013573;28;19926;-61
2023/12/20 09:01:13;;;;;;;;;;;4.00;99.90;;;;;;5015164;28;19929;-63
2023/12/20 09:03:40;;;;;;;;;;;4.00;99.90;;;;;;5009469;28;20294;-61
2023/12/20 09:06:07;;;;;;;;;;;4.00;99.90;;;;;;5003081;28;20634;-59
2023/12/20 09:08:34;;;;;;;;;;;4.00;99.90;;;;;;5013864;28;20040;-60
2023/12/20 09:11:01;;;;;;;;;;;4.00;99.90;;;;;;5010737;28;19933;-60
2023/12/20 09:13:29;;;;;;;;;;;4.00;99.90;;;;;;5005123;28;20000;-60
2023/12/20 09:15:56;;;;;;;;;;;4.00;99.90;;;;;;5004018;28;19929;-61
2023/12/20 09:18:23;;;;;;;;;;;4.00;99.90;;;;;;5013173;28;19930;-59
2023/12/20 09:20:50;;;;;;;;;;;4.10;99.90;;;;;;5004132;28;20032;-66
2023/12/20 09:23:18;;;;;;;;;;;4.00;99.90;;;;;;5007680;28;20450;-63
2023/12/20 09:25:45;;;;;;;;;;;4.00;99.90;;;;;;5010527;28;20376;-59
2023/12/20 09:28:12;;;;;;;;;;;4.00;99.90;;;;;;5015619;28;19933;-62
2023/12/20 09:30:39;;;;;;;;;;;4.00;99.90;;;;;;5014926;28;20416;-60
2023/12/20 09:33:07;;;;;;;;;;;4.00;99.90;;;;;;5014668;28;19951;-62
2023/12/20 09:35:35;;;;;;;;;;;4.00;99.90;;;;;;5009305;28;19926;-65
2023/12/20 09:38:02;;;;;;;;;;;4.10;99.90;;;;;;5003316;28;19926;-59
2023/12/20 09:40:30;;;;;;;;;;;4.10;99.90;;;;;;5009065;28;19928;-62
2023/12/20 09:42:58;;;;;;;;;;;4.10;99.90;;;;;;5008878;28;19925;-61
2023/12/20 09:45:25;;;;;;;;;;;4.10;99.90;;;;;;5009402;28;19929;-61
2023/12/20 09:47:52;;;;;;;;;;;4.10;99.90;;;;;;5010987;28;19933;-61
2023/12/20 09:50:20;;;;;;;;;;;4.10;99.90;;;;;;5016749;28;19987;-65
2023/12/20 09:52:51;;;;;;;;;;;4.10;99.90;;;;;;5013062;28;20482;-63
2023/12/20 09:55:21;;;;;;;;;;;4.10;99.90;;;;;;5007835;28;20019;-60
2023/12/20 09:57:49;;;;;;;;;;;4.10;99.90;;;;;;5010713;28;20507;-59
2023/12/20 10:00:17;;;;;;;;;;;4.10;99.90;;;;;;5001340;28;19948;-60
2023/12/20 10:02:50;;;;;;;;;;;4.10;99.90;;;;;;5005695;28;19933;-61
2023/12/20 10:05:20;;;;;;;;;;;4.10;99.90;;;;;;4992820;28;19936;-60
2023/12/20 10:07:47;;;;;;;;;;;4.10;99.90;;;;;;5004092;28;19933;-61
2023/12/20 10:10:15;;;;;;;;;;;4.10;99.90;;;;;;5004630;28;19926;-62
2023/12/20 10:13:00;;;;;;;;;;;4.10;99.90;;;;;;5011233;28;19940;-66
2023/12/20 10:15:27;;;;;;;;;;;4.10;99.90;;;;;;5008373;28;19929;-66
2023/12/20 10:17:54;;;;;;;;;;;4.10;99.90;;;;;;5014617;28;20732;-60
2023/12/20 10:20:26;;;;;;;;;;;4.10;99.90;;;;;;5014386;28;19929;-61
2023/12/20 10:22:54;;;;;;;;;;;4.10;99.90;;;;;;5002728;28;20048;-61
2023/12/20 10:25:21;;;;;;;;;;;4.00;99.90;;;;;;5005712;28;19929;-61
2023/12/20 10:27:49;;;;;;;;;;;4.10;99.90;;;;;;5008890;28;19980;-59
2023/12/20 10:30:16;;;;;;;;;;;4.00;99.90;;;;;;5002399;28;20024;-68
2023/12/20 10:32:43;;;;;;;;;;;4.00;99.90;;;;;;5009622;28;19929;-64
2023/12/20 10:35:10;;;;;;;;;;;4.00;99.90;;;;;;5007762;28;19925;-59
2023/12/20 10:37:37;;;;;;;;;;;4.00;99.90;;;;;;5008264;28;20649;-59
2023/12/20 10:40:05;;;;;;;;;;;4.00;99.90;;;;;;5012522;28;19933;-63
2023/12/20 10:42:36;;;;;;;;;;;4.00;99.90;;;;;;5010586;28;19940;-62
2023/12/20 10:45:03;;;;;;;;;;;4.00;99.90;;;;;;5011251;28;20584;-62
2023/12/20 10:47:30;;;;;;;;;;;4.00;99.90;;;;;;5007033;28;20759;-59
2023/12/20 10:49:59;;;;;;;;;;;4.00;99.90;;;;;;5003576;28;19929;-60
2023/12/20 10:52:27;;;;;;;;;;;4.00;99.90;;;;;;5002045;28;19945;-60
2023/12/20 10:54:54;;;;;;;;;;;4.00;99.90;;;;;;5003674;28;21634;-64
2023/12/20 10:57:26;;;;;;;;;;;4.10;99.90;;;;;;5011818;28;19939;-64
2023/12/20 10:59:54;;;;;;;;;;;4.10;99.90;;;;;;5012619;28;20003;-59
2023/12/20 11:02:21;;;;;;;;;;;4.10;99.90;;;;;;5011337;28;19979;-64
2023/12/20 11:04:48;;;;;;;;;;;4.10;99.90;;;;;;5009069;28;19973;-60
2023/12/20 11:07:34;;;;;;;;;;;4.10;99.90;;;;;;5021324;28;19929;-65
2023/12/20 11:10:18;;;;;;;;;;;4.10;99.90;;;;;;5005872;28;19936;-59
2023/12/20 11:13:00;;;;;;;;;;;4.10;99.90;;;;;;5009472;28;20430;-65
2023/12/20 11:15:28;;;;;;;;;;;4.10;99.90;;;;;;5005427;28;19925;-59
2023/12/20 11:17:56;;;;;;;;;;;4.10;99.90;;;;;;5014916;28;19933;-63
2023/12/20 11:20:23;;;;;;;;;;;4.20;99.90;;;;;;5012001;28;19929;-60
2023/12/20 11:22:54;;;;;;;;;;;4.20;99.90;;;;;;5015721;28;19925;-61
2023/12/20 11:25:21;;;;;;;;;;;4.20;99.90;;;;;;5018896;28;19960;-59
2023/12/20 11:28:08;;;;;;;;;;;4.20;99.90;;;;;;5018726;28;20351;-62
2023/12/20 11:30:41;;;;;;;;;;;4.20;99.90;;;;;;5015354;28;19928;-68
2023/12/20 11:33:08;;;;;;;;;;;4.20;99.90;;;;;;5009578;28;19937;-59
2023/12/20 11:35:36;;;;;;;;;;;4.20;99.90;;;;;;5007245;28;20031;-63
2023/12/20 11:38:04;;;;;;;;;;;4.20;99.90;;;;;;5012426;28;19929;-63
2023/12/20 11:40:33;;;;;;;;;;;4.20;99.90;;;;;;5012688;28;19983;-62
2023/12/20 11:43:00;;;;;;;;;;;4.20;99.90;;;;;;5010187;28;19937;-61
2023/12/20 11:45:27;;;;;;;;;;;4.20;99.90;;;;;;4999035;28;20020;-60
2023/12/20 11:47:57;;;;;;;;;;;4.20;99.90;;;;;;5013817;28;19936;-61
2023/12/20 11:50:25;;;;;;;;;;;4.20;99.90;;;;;;5012340;28;19997;-62
2023/12/20 11:52:53;;;;;;;;;;;4.20;99.90;;;;;;5011088;28;20264;-64
2023/12/20 11:55:19;;;;;;;;;;;4.20;99.90;;;;;;5011186;28;19933;-59
2023/12/20 11:57:47;;;;;;;;;;;4.20;99.90;;;;;;5003987;28;19932;-61
2023/12/20 12:00:14;;;;;;;;;;;4.30;99.90;;;;;;5002588;28;19929;-67
2023/12/20 12:02:42;;;;;;;;;;;4.20;99.90;;;;;;5009757;28;19930;-62
2023/12/20 12:05:11;;;;;;;;;;;4.30;99.90;;;;;;5010253;28;19932;-64
2023/12/20 12:07:38;;;;;;;;;;;4.30;99.90;;;;;;5010052;28;19933;-61
2023/12/20 12:10:05;;;;;;;;;;;4.30;99.90;;;;;;5009104;28;19933;-62
2023/12/20 12:12:32;;;;;;;;;;;4.30;99.90;;;;;;5015292;28;20339;-60
2023/12/20 12:14:59;;;;;;;;;;;4.30;99.90;;;;;;5015460;28;19936;-66
2023/12/20 12:17:27;;;;;;;;;;;4.30;99.90;;;;;;5015356;28;20407;-62
2023/12/20 12:20:01;;;;;;;;;;;4.30;99.90;;;;;;5013230;28;20392;-59
2023/12/20 12:22:28;;;;;;;;;;;4.30;99.90;;;;;;5005646;28;19980;-58
2023/12/20 12:24:58;;;;;;;;;;;4.30;99.90;;;;;;5007010;28;19939;-65
2023/12/20 12:27:25;;;;;;;;;;;4.30;99.90;;;;;;5009816;28;19930;-63
2023/12/20 12:30:03;;;;;;;;;;;4.30;99.90;;;;;;5006121;28;19926;-58
2023/12/20 12:32:30;;;;;;;;;;;4.30;99.90;;;;;;5009385;28;19977;-60
2023/12/20 12:34:57;;;;;;;;;;;4.40;99.90;;;;;;5019224;28;19933;-62
2023/12/20 12:37:24;;;;;;;;;;;4.40;99.90;;;;;;5007198;28;19934;-59
2023/12/20 12:39:53;;;;;;;;;;;4.40;99.90;;;;;;5014185;28;19929;-59
2023/12/20 12:42:20;;;;;;;;;;;4.40;99.90;;;;;;5003426;28;19956;-60
2023/12/20 12:44:47;;;;;;;;;;;4.40;99.90;;;;;;5004892;28;19991;-59
2023/12/20 12:47:14;;;;;;;;;;;4.40;99.90;;;;;;5003176;28;20001;-60
2023/12/20 12:49:41;;;;;;;;;;;4.40;99.90;;;;;;5011720;28;19968;-59
2023/12/20 12:52:07;;;;;;;;;;;4.40;99.90;;;;;;5004298;28;20303;-59
2023/12/20 12:54:34;;;;;;;;;;;4.40;99.90;;;;;;5008219;28;19936;-59
2023/12/20 12:57:01;;;;;;;;;;;4.40;99.90;;;;;;5005745;28;19932;-58
2023/12/20 12:59:28;;;;;;;;;;;4.40;99.90;;;;;;5009856;28;19965;-58
2023/12/20 13:01:55;;;;;;;;;;;4.40;99.90;;;;;;5016860;28;19979;-63
2023/12/20 13:04:22;;;;;;;;;;;4.40;99.90;;;;;;5010036;28;19926;-60
2023/12/20 13:06:49;;;;;;;;;;;4.40;99.90;;;;;;5009151;28;19964;-60
2023/12/20 13:09:16;;;;;;;;;;;4.40;99.90;;;;;;5003850;28;19934;-62
2023/12/20 13:11:43;;;;;;;;;;;4.30;99.90;;;;;;5008029;28;19929;-60
2023/12/20 13:14:15;;;;;;;;;;;4.30;99.90;;;;;;5012557;28;19929;-59
2023/12/20 13:16:42;;;;;;;;;;;4.30;99.90;;;;;;5014947;28;19983;-58
2023/12/20 13:19:09;;;;;;;;;;;4.30;99.90;;;;;;5010255;28;19969;-58
2023/12/20 13:21:36;;;;;;;;;;;4.30;99.90;;;;;;5013528;28;20020;-63
2023/12/20 13:24:03;;;;;;;;;;;4.30;99.90;;;;;;5014465;28;20171;-61
2023/12/20 13:26:30;;;;;;;;;;;4.30;99.90;;;;;;5009202;28;19929;-59
2023/12/20 13:28:57;;;;;;;;;;;4.30;99.90;;;;;;5011149;28;19928;-62
2023/12/20 13:31:24;;;;;;;;;;;4.30;99.90;;;;;;5006848;28;19953;-58
2023/12/20 13:33:52;;;;;;;;;;;4.30;99.90;;;;;;4994049;28;20338;-58
2023/12/20 13:36:19;;;;;;;;;;;4.30;99.90;;;;;;5007904;28;19925;-61
2023/12/20 13:38:46;;;;;;;;;;;4.30;99.90;;;;;;5005515;28;19929;-60
2023/12/20 13:41:13;;;;;;;;;;;4.30;99.90;;;;;;5009518;28;19936;-66
2023/12/20 13:43:40;;;;;;;;;;;4.30;99.90;;;;;;5007182;28;19925;-59
2023/12/20 13:46:06;;;;;;;;;;;4.30;99.90;;;;;;5005501;28;20015;-61
2023/12/20 13:48:33;;;;;;;;;;;4.30;99.90;;;;;;5012974;28;19938;-61
2023/12/20 13:51:01;;;;;;;;;;;4.30;99.90;;;;;;5014548;28;21340;-64
2023/12/20 13:53:28;;;;;;;;;;;4.30;99.90;;;;;;5002834;28;19929;-64
2023/12/20 13:55:55;;;;;;;;;;;4.30;99.90;;;;;;5004013;28;19926;-58
2023/12/20 13:58:22;;;;;;;;;;;4.30;99.90;;;;;;5005622;28;20011;-58
2023/12/20 14:00:48;;;;;;;;;;;4.30;99.90;;;;;;5005106;28;19936;-58
2023/12/20 14:03:15;;;;;;;;;;;4.30;99.90;;;;;;5006715;28;20456;-62
2023/12/20 14:05:42;;;;;;;;;;;4.30;99.90;;;;;;5009510;28;19925;-58
2023/12/20 14:08:09;;;;;;;;;;;4.30;99.90;;;;;;5007404;28;19929;-60
2023/12/20 14:10:36;;;;;;;;;;;4.20;99.90;;;;;;5011657;28;20011;-61
2023/12/20 14:13:05;;;;;;;;;;;4.20;99.90;;;;;;5012902;28;19933;-61
2023/12/20 14:15:36;;;;;;;;;;;4.20;99.90;;;;;;5015963;28;19940;-65
2023/12/20 14:18:07;;;;;;;;;;;4.20;99.90;;;;;;5005484;28;19929;-60
2023/12/20 14:20:34;;;;;;;;;;;4.20;99.90;;;;;;5006076;28;19933;-59
2023/12/20 14:23:02;;;;;;;;;;;4.20;99.90;;;;;;5008493;28;19933;-60
2023/12/20 14:25:29;;;;;;;;;;;4.30;99.90;;;;;;5003093;28;19937;-63
2023/12/20 14:28:01;;;;;;;;;;;4.30;99.90;;;;;;5002842;28;19932;-59
2023/12/20 14:30:28;;;;;;;;;;;4.30;99.90;;;;;;5013448;28;19925;-64
2023/12/20 14:32:55;;;;;;;;;;;4.30;99.90;;;;;;5013846;28;19983;-59